メインページ
METAR-TAF:

METAR-TAF

空港 :

台北, 台湾

台湾桃園国際空港

緯度: 25-05N, 経度: 121-13E, 海抜: 33m

現時点の気象観測

当レポートは37分前の14:00(UTC)に作成
の風 6kt
気温 30°C
湿度 66%
気圧 1005 hPa
視程10km以上
高度1500ftの雲はほとんどない

METAR: RCTP 271400Z 10006KT 9999 FEW015 30/23 Q1005 NOSIG RMK A2968

時間: 22:37 (14:37 UTC)

予報

当レポートは3時間34分前の11:03(UTC)に作成
予報は27日の 12時(UTC)から 28日の 18時(UTC)まで有効
東/南東の風 8kt
視程10km以上
高度1500ftの雲はほとんどない
高度4000ftの雲は散在している
27日の 16時(UTC)から 27日の 22時(UTC)まで一時的に
南/南東の風 5kt
28日の 00時(UTC)から 28日の 02時(UTC)まで徐々に
の風 12kt
28日の 06時(UTC)から 28日の 12時(UTC)まで一時的に
東/北東の風 17kt
28日の 12時(UTC)から 28日の 14時(UTC)まで徐々に
東/北東の風 17kt
高度1500ftの雲はほとんどない
高度3200ftの千切れ雲あり
28日の 14時(UTC)から 28日の 18時(UTC)まで一時的に
視程: 5000m
高度1000ftの雲はほとんどない
高度2200ftの千切れ雲あり
高度3500ftの千切れ雲あり
にわか雨

TAF: RCTP 271103Z 2712/2818 11008KT 9999 FEW015 SCT040 TEMPO 2716/2722 15005KT BECMG 2800/2802 08012KT TEMPO 2806/2812 06017KT BECMG 2812/2814 06017KT FEW015 BKN032 TEMPO 2814/2818 5000 SHRA FEW010 BKN022 BKN035

4,000以上の空港の気象観測と天気予報(METAR報とTAF報)

利用可能な観測所は地図上に黄色い丸と赤い丸で示す。

丸の上にカーソルを重ねると観測所名を参照できる。

次にクリックすると気象観測と天気予報を参照できる。

マップの切り替え:黒色「×」印の緑ボタンをクリックして拡大、「-」印の緑ボタンをクリックして縮小、緑色の三角印をクリックして隣りの地図に切り替え


METAR-TAF: